createdAt,value
2023-03-19T00:04:05.285Z,6.00
2023-03-19T00:09:10.454Z,17.00
2023-03-19T00:14:17.254Z,14.33
2023-03-19T00:24:27.515Z,14.75
2023-03-19T00:29:33.205Z,15.67
2023-03-19T00:34:38.805Z,5.50
2023-03-19T00:39:44.792Z,9.33
2023-03-19T00:44:52.168Z,6.67
2023-03-19T00:49:57.702Z,0.67
2023-03-19T00:55:03.359Z,10.00
2023-03-19T01:00:10.183Z,10.00
2023-03-19T01:05:17.145Z,13.33
2023-03-19T01:10:24.593Z,16.25
2023-03-19T01:15:29.916Z,14.33
2023-03-19T01:20:35.935Z,17.75
2023-03-19T01:25:42.239Z,27.00
2023-03-19T01:30:49.704Z,23.75
2023-03-19T01:36:16.677Z,16.00
2023-03-19T01:41:43.134Z,18.50
2023-03-19T01:47:34.537Z,14.00
2023-03-19T01:53:01.095Z,27.50
2023-03-19T01:58:20.590Z,21.33
2023-03-19T02:03:44.383Z,17.67
2023-03-19T02:09:01.092Z,38.67
2023-03-19T02:14:06.531Z,29.50
2023-03-19T02:19:20.091Z,32.00
2023-03-19T02:24:37.701Z,24.00
2023-03-19T02:29:49.416Z,21.50
2023-03-19T02:34:55.009Z,27.67
2023-03-19T02:40:32.603Z,43.00
2023-03-19T02:45:38.037Z,31.67
2023-03-19T02:50:43.462Z,30.75
2023-03-19T02:55:48.950Z,23.00
2023-03-19T03:00:55.081Z,27.67
2023-03-19T03:06:01.790Z,19.33
2023-03-19T03:11:07.779Z,23.50
2023-03-19T03:16:14.030Z,25.33
2023-03-19T03:21:22.659Z,32.25
2023-03-19T03:26:28.467Z,26.75
2023-03-19T03:31:34.822Z,32.33
2023-03-19T03:36:40.306Z,25.00
2023-03-19T03:41:46.586Z,30.00
2023-03-19T03:46:53.166Z,32.67
2023-03-19T03:51:58.622Z,40.00
2023-03-19T03:57:05.040Z,33.50
2023-03-19T04:02:10.727Z,35.25
2023-03-19T04:07:16.207Z,28.67
2023-03-19T04:12:29.755Z,26.75
2023-03-19T04:17:36.177Z,30.25
2023-03-19T04:22:41.518Z,31.33
2023-03-19T04:27:48.296Z,32.75
2023-03-19T04:32:53.579Z,29.50
2023-03-19T04:37:58.995Z,40.00
2023-03-19T04:43:04.421Z,31.00
2023-03-19T04:48:11.078Z,36.25
2023-03-19T04:53:18.777Z,35.50
2023-03-19T04:58:25.362Z,34.50
2023-03-19T05:03:37.485Z,42.33
2023-03-19T05:08:42.908Z,38.50
2023-03-19T05:13:48.381Z,40.00
2023-03-19T05:18:54.396Z,39.50
2023-03-19T05:24:00.164Z,40.75
2023-03-19T05:29:12.134Z,44.75
2023-03-19T05:34:31.209Z,38.75
2023-03-19T05:39:38.208Z,41.25
2023-03-19T05:44:46.562Z,42.75
2023-03-19T05:50:09.249Z,42.25
2023-03-19T05:55:14.841Z,45.50
2023-03-19T06:00:29.129Z,45.25
2023-03-19T06:05:34.665Z,44.25
2023-03-19T06:10:58.211Z,40.67
2023-03-19T06:16:04.800Z,40.75
2023-03-19T06:21:18.322Z,41.00
2023-03-19T06:26:25.118Z,41.67
2023-03-19T06:31:33.062Z,41.00
2023-03-19T06:36:43.359Z,42.75
2023-03-19T06:41:51.844Z,40.00
2023-03-19T06:47:02.117Z,45.33
2023-03-19T06:52:08.967Z,38.33
2023-03-19T06:57:14.102Z,42.75
2023-03-19T07:02:19.813Z,46.50
2023-03-19T07:07:25.575Z,42.00
2023-03-19T07:12:30.728Z,41.25
2023-03-19T07:17:36.017Z,32.75
2023-03-19T07:22:41.197Z,42.50
2023-03-19T07:27:47.668Z,39.75
2023-03-19T07:32:53.836Z,41.00
2023-03-19T07:37:59.553Z,40.75
2023-03-19T07:43:05.424Z,43.25
2023-03-19T07:53:15.585Z,45.50
2023-03-19T07:58:21.790Z,37.75
2023-03-19T08:03:27.414Z,38.50
2023-03-19T08:08:33.829Z,44.00
2023-03-19T08:13:39.441Z,37.33
2023-03-19T08:18:44.687Z,32.50
2023-03-19T08:23:49.942Z,36.50
2023-03-19T08:28:55.258Z,36.25
2023-03-19T08:34:05.385Z,36.75
2023-03-19T08:39:10.688Z,32.25
2023-03-19T08:44:16.108Z,31.25
2023-03-19T08:49:21.389Z,35.50
2023-03-19T08:54:27.618Z,35.25
2023-03-19T08:59:34.289Z,25.00
2023-03-19T09:04:42.475Z,25.00
2023-03-19T09:09:48.223Z,28.00
2023-03-19T09:14:53.529Z,31.50
2023-03-19T09:19:59.144Z,33.00
2023-03-19T09:25:04.916Z,35.33
2023-03-19T09:30:14.121Z,29.50
2023-03-19T09:35:19.755Z,31.75
2023-03-19T09:40:35.546Z,36.33
2023-03-19T09:45:41.095Z,35.75
2023-03-19T09:50:47.567Z,33.67
2023-03-19T09:55:55.466Z,35.75
2023-03-19T10:01:02.294Z,34.33
2023-03-19T10:06:28.907Z,34.00
2023-03-19T10:11:46.212Z,37.67
2023-03-19T10:16:55.257Z,24.25
2023-03-19T10:22:10.992Z,40.00
2023-03-19T10:27:24.935Z,36.75
2023-03-19T10:32:45.070Z,36.75
2023-03-19T10:37:56.478Z,39.75
2023-03-19T10:43:17.178Z,39.25
2023-03-19T10:48:29.817Z,44.33
2023-03-19T10:53:39.126Z,45.75
2023-03-19T10:59:02.658Z,38.00
2023-03-19T11:04:23.202Z,36.67
2023-03-19T11:09:51.472Z,45.25
2023-03-19T11:15:00.944Z,44.50
2023-03-19T11:20:36.531Z,42.00
2023-03-19T11:31:06.735Z,44.33
2023-03-19T11:36:22.634Z,47.00
2023-03-19T11:41:57.508Z,47.33
2023-03-19T11:47:36.501Z,42.50
2023-03-19T11:53:07.560Z,45.00
2023-03-19T11:58:46.254Z,46.00
2023-03-19T12:04:29.289Z,36.75
2023-03-19T12:10:00.718Z,39.00
2023-03-19T12:20:22.816Z,41.75
2023-03-19T12:25:34.188Z,38.75
2023-03-19T12:30:52.708Z,41.50
2023-03-19T12:36:01.149Z,42.33
2023-03-19T12:41:12.609Z,42.67
2023-03-19T12:46:26.679Z,47.00
2023-03-19T12:51:40.363Z,42.75
2023-03-19T12:57:02.880Z,44.75
2023-03-19T13:02:11.838Z,48.33
2023-03-19T13:07:53.434Z,35.67
2023-03-19T13:13:00.761Z,35.75
2023-03-19T13:18:06.638Z,34.25
2023-03-19T13:23:16.693Z,47.00
2023-03-19T13:29:05.375Z,49.00
2023-03-19T13:34:27.658Z,43.00
2023-03-19T13:39:37.105Z,40.75
2023-03-19T13:50:17.906Z,48.67
2023-03-19T13:55:47.007Z,41.50
2023-03-19T14:01:00.590Z,49.50
2023-03-19T14:06:08.477Z,47.33
2023-03-19T14:11:31.358Z,40.50
2023-03-19T14:16:45.134Z,49.00
2023-03-19T14:22:10.518Z,45.00
2023-03-19T14:32:45.491Z,43.00
2023-03-19T14:37:54.998Z,46.50
2023-03-19T14:43:13.123Z,49.67
2023-03-19T14:49:00.070Z,43.33
2023-03-19T14:54:36.244Z,45.00
2023-03-19T14:59:43.261Z,50.00
2023-03-19T15:04:51.156Z,45.25
2023-03-19T15:09:58.376Z,46.75
2023-03-19T15:15:26.104Z,45.75
2023-03-19T15:20:38.977Z,47.33
2023-03-19T15:25:53.187Z,45.50
2023-03-19T15:31:20.263Z,47.33
2023-03-19T15:36:35.058Z,42.25
2023-03-19T15:41:48.010Z,48.00
2023-03-19T15:46:55.586Z,33.67
2023-03-19T15:52:08.427Z,43.75
2023-03-19T15:57:18.476Z,44.00
2023-03-19T16:02:37.422Z,49.67
2023-03-19T16:07:47.726Z,43.67
2023-03-19T16:12:53.679Z,41.00
2023-03-19T16:18:36.195Z,42.25
2023-03-19T16:24:06.206Z,50.00
2023-03-19T16:29:43.665Z,47.33
2023-03-19T16:34:58.027Z,44.33
2023-03-19T16:40:25.712Z,44.75
2023-03-19T16:45:37.024Z,50.00
2023-03-19T16:50:45.828Z,47.67
2023-03-19T16:55:53.115Z,49.50
2023-03-19T17:01:01.573Z,47.50
2023-03-19T17:06:12.267Z,49.00
2023-03-19T17:11:32.821Z,44.75
2023-03-19T17:16:38.702Z,39.67
2023-03-19T17:21:45.640Z,44.00
2023-03-19T17:26:51.517Z,48.75
2023-03-19T17:32:01.739Z,46.33
2023-03-19T17:37:16.327Z,50.00
2023-03-19T17:42:28.345Z,45.75
2023-03-19T17:47:36.089Z,49.25
2023-03-19T17:52:45.264Z,43.33
2023-03-19T17:57:53.420Z,49.50
2023-03-19T18:03:00.613Z,47.33
2023-03-19T18:08:06.358Z,50.00
2023-03-19T18:13:12.701Z,46.00
2023-03-19T18:18:23.479Z,46.50
2023-03-19T18:23:29.424Z,47.25
2023-03-19T18:28:35.472Z,47.50
2023-03-19T18:33:42.850Z,49.67
2023-03-19T18:38:48.824Z,45.25
2023-03-19T18:43:56.687Z,44.67
2023-03-19T18:54:09.147Z,50.00
2023-03-19T18:59:28.531Z,45.67
2023-03-19T19:04:35.199Z,37.75
2023-03-19T19:09:41.002Z,46.50
2023-03-19T19:14:47.486Z,48.75
2023-03-19T19:19:53.317Z,48.00
2023-03-19T19:24:59.055Z,49.00
2023-03-19T19:35:22.891Z,43.25
2023-03-19T19:40:33.726Z,48.25
2023-03-19T19:45:43.103Z,46.25
2023-03-19T19:50:50.279Z,48.00
2023-03-19T19:55:56.209Z,46.33
2023-03-19T20:01:04.477Z,48.75
2023-03-19T20:06:10.314Z,50.00
2023-03-19T20:11:22.591Z,49.75
2023-03-19T20:16:28.565Z,53.50
2023-03-19T20:21:34.085Z,48.50
2023-03-19T20:26:39.632Z,50.00
2023-03-19T20:31:48.240Z,50.67
2023-03-19T20:36:54.283Z,50.25
2023-03-19T20:41:59.837Z,41.00
2023-03-19T20:47:05.268Z,48.00
2023-03-19T20:52:13.471Z,53.00
2023-03-19T20:57:24.237Z,49.50
2023-03-19T21:02:29.775Z,46.75
2023-03-19T21:07:36.430Z,48.75
2023-03-19T21:12:41.898Z,50.00
2023-03-19T21:17:50.057Z,59.00
2023-03-19T21:23:07.410Z,60.25
2023-03-19T21:28:53.371Z,50.00
2023-03-19T21:34:00.313Z,60.33
2023-03-19T21:39:05.667Z,42.33
2023-03-19T21:44:22.311Z,55.67
2023-03-19T21:49:28.031Z,50.00
2023-03-19T21:54:33.491Z,50.00
2023-03-19T21:59:41.099Z,49.00
2023-03-19T22:04:47.841Z,50.00
2023-03-19T22:09:54.304Z,50.00
2023-03-19T22:15:01.525Z,45.00
2023-03-19T22:20:07.298Z,47.67
2023-03-19T22:25:17.840Z,50.00
2023-03-19T22:30:44.224Z,49.33
2023-03-19T22:35:53.388Z,50.75
2023-03-19T22:40:59.113Z,49.00
2023-03-19T22:46:11.489Z,53.00
2023-03-19T22:51:22.948Z,66.33
2023-03-19T22:56:28.412Z,55.00
2023-03-19T23:06:59.490Z,55.25
2023-03-19T23:12:05.988Z,46.25
2023-03-19T23:22:24.271Z,45.50
2023-03-19T23:27:30.728Z,46.33
2023-03-19T23:32:37.401Z,54.75
2023-03-19T23:42:51.785Z,50.00
2023-03-19T23:48:05.783Z,62.33
2023-03-19T23:53:22.024Z,54.50
2023-03-19T23:58:41.288Z,50.00
